Nord Imagination — 3FIA8 — position and weather

sailwx.info

Track history (hours):
 
Tides and Currents Weather Stations Pressure Air Temp Water Temp Dewpoint Dewpoint Depression Visibility Wind Speed Wind Dir Waves Ship Positions

Nord Imagination

Last reported at 2015-May-09 17:33 UTC. Time now 2015-May-25 05:34 UTC.
Position N 01°15' E 104°01'.
Warning: this ship's position is 15 days out of date.

Length 179 m; draft 11 m.

Type: Ship (hazmat cat B). MMSI: 354828000.

Date/timePositionNaut miles runAvg speedWind from/ knotsBaromVisibWave heightAir tempDewpointWater temp
2015-May-09 17:33N 01°15' E 104°01'1211.9
2015-May-09 16:33N 01°11' E 103°50'2 1.9
2015-May-09 15:33N 01°13' E 103°49'5 5.1
2015-May-09 14:33N 01°15' E 103°44'  
2015-May-07 06:30N 01°14' E 103°48'0 0.1
2015-May-07 05:30N 01°14' E 103°48'0 0.1
2015-May-07 04:30N 01°14' E 103°48'0 0.1
2015-May-07 03:30N 01°14' E 103°48'0 0.0
2015-May-07 02:06N 01°14' E 103°48'0 0.1
2015-May-07 01:31N 01°14' E 103°48'0 0.1
2015-May-07 00:33N 01°14' E 103°48'0 0.0
2015-May-06 23:30N 01°14' E 103°48'0 0.0
2015-May-06 22:30N 01°14' E 103°48'0 0.0
2015-May-06 21:30N 01°14' E 103°48'0 0.0
2015-May-06 20:33N 01°14' E 103°48'0 0.1
2015-May-06 19:30N 01°14' E 103°48'0 0.1
2015-May-06 18:24N 01°14' E 103°48'0 0.1
2015-May-06 17:12N 01°14' E 103°48'0 0.1
2015-May-06 16:33N 01°14' E 103°48'0 0.1
2015-May-06 15:30N 01°14' E 103°48'0 0.0
2015-May-06 14:30N 01°14' E 103°48'0 0.0
2015-May-06 13:30N 01°14' E 103°48'0 0.0
2015-May-06 12:24N 01°14' E 103°48'0 0.0
2015-May-06 11:30N 01°14' E 103°48'1 1.1
2015-May-06 10:33N 01°15' E 103°47'8 7.8
2015-May-06 09:33N 01°15' E 103°39'4 0.1
2015-May-04 19:29N 01°18' E 103°42'5 2.4
2015-May-04 17:33N 01°16' E 103°46'3 1.9
2015-May-04 16:03N 01°14' E 103°49'0 0.0
2015-May-04 15:30N 01°14' E 103°49'0 0.0
2015-May-04 12:33N 01°14' E 103°48'0 0.0
2015-May-04 11:18N 01°14' E 103°48'0 0.0
2015-May-04 10:30N 01°14' E 103°48'0 0.1
2015-May-04 09:27N 01°14' E 103°48'0 0.1
2015-May-04 07:27N 01°14' E 103°49'0 0.0
2015-May-04 06:03N 01°14' E 103°49'0 0.0
2015-May-04 05:24N 01°14' E 103°49'0 0.1
2015-May-04 03:30N 01°14' E 103°48'0 0.0
2015-May-04 02:33N 01°14' E 103°48'0 0.0
2015-May-04 01:24N 01°14' E 103°48'0 0.1
2015-May-03 23:24N 01°14' E 103°49'0 0.0
2015-May-03 22:12N 01°14' E 103°49'0 0.0
2015-May-03 21:30N 01°14' E 103°49'0 0.0
2015-May-03 20:30N 01°14' E 103°49'0 0.0
2015-May-03 19:33N 01°14' E 103°49'0 0.0
2015-May-03 18:24N 01°14' E 103°49'0 0.0
2015-May-03 17:33N 01°14' E 103°49'0 0.0
2015-May-03 15:03N 01°14' E 103°49'0 0.0
2015-May-03 12:30N 01°14' E 103°48'0 0.1
2015-May-03 11:30N 01°14' E 103°48'0 0.0
2015-May-03 10:30N 01°14' E 103°48'0 0.1
2015-May-03 09:27N 01°14' E 103°48'0 0.0
2015-May-03 06:25N 01°14' E 103°49'0 0.0
2015-May-03 03:27N 01°14' E 103°48'0 0.0
2015-May-03 01:20N 01°14' E 103°48'0 0.1
2015-May-03 00:24N 01°14' E 103°49'0 0.1
2015-May-02 23:21N 01°14' E 103°49'0 0.0
2015-May-02 22:24N 01°14' E 103°49'0 0.0
2015-May-02 21:30N 01°14' E 103°49'0 0.0
2015-May-02 20:06N 01°14' E 103°49'0 0.0
2015-May-02 19:30N 01°14' E 103°49'0 0.0
2015-May-02 18:24N 01°14' E 103°49'0 0.0
2015-May-02 16:30N 01°14' E 103°49'0 0.0
2015-May-02 15:30N 01°14' E 103°49'0 0.0
2015-May-02 14:03N 01°14' E 103°49'0 0.1
2015-May-02 12:21N 01°14' E 103°48'0 0.0
2015-May-02 11:30N 01°14' E 103°48'0 0.0
2015-May-02 10:07N 01°14' E 103°48'0 0.3
2015-May-02 09:24N 01°14' E 103°49'0 0.0
2015-May-02 07:30N 01°14' E 103°49'0 0.0
2015-May-02 06:21N 01°14' E 103°49'0 0.0
2015-May-02 02:27N 01°14' E 103°48'0 0.1
2015-May-02 01:30N 01°14' E 103°48'0 0.0
2015-May-02 00:30N 01°14' E 103°48'0 0.1
2015-May-01 22:24N 01°14' E 103°49'0 0.0
2015-May-01 21:27N 01°14' E 103°49'0 0.0
2015-May-01 20:30N 01°14' E 103°49'0 0.0
2015-May-01 18:24N 01°14' E 103°49'0 0.0
2015-May-01 17:06N 01°14' E 103°49'0 0.0
2015-May-01 16:24N 01°14' E 103°49'0 0.0
2015-May-01 11:24N 01°14' E 103°48'0 0.1
2015-May-01 10:30N 01°14' E 103°48'0 0.1
2015-May-01 07:12N 01°14' E 103°49'0 0.0
2015-May-01 06:24N 01°14' E 103°49'0 0.0
2015-May-01 05:24N 01°14' E 103°49'0 0.0
2015-May-01 04:30N 01°14' E 103°49'0 0.0
2015-May-01 03:24N 01°14' E 103°49'0 0.1
2015-May-01 02:15N 01°14' E 103°49'0 0.1
2015-May-01 01:18N 01°14' E 103°48'0 0.0
2015-May-01 00:24N 01°14' E 103°48'0 0.0
2015-Apr-30 23:24N 01°14' E 103°48'0 0.0
2015-Apr-30 22:24N 01°14' E 103°48'0 0.1
2015-Apr-30 21:09N 01°14' E 103°48'0 0.1
2015-Apr-30 20:15N 01°14' E 103°49'0 0.0
2015-Apr-30 19:30N 01°14' E 103°49'0 0.0
2015-Apr-30 18:33N 01°14' E 103°49'0 0.1
2015-Apr-30 17:30N 01°14' E 103°49'0 0.1
2015-Apr-30 16:18N 01°14' E 103°49'0 0.0
2015-Apr-30 15:30N 01°14' E 103°49'0 0.2
2015-Apr-30 14:27N 01°14' E 103°48'0 0.1
2015-Apr-30 13:33N 01°14' E 103°48'0 0.1
2015-Apr-30 12:30N 01°14' E 103°48'0 0.0
2015-Apr-30 11:24N 01°14' E 103°48'0 0.0
2015-Apr-30 10:30N 01°14' E 103°48'0 0.1
2015-Apr-30 09:30N 01°14' E 103°48'0 0.1
2015-Apr-30 08:24N 01°14' E 103°49'0 0.1
2015-Apr-30 07:30N 01°14' E 103°49'0 0.0
2015-Apr-30 06:24N 01°14' E 103°49'0 0.0
2015-Apr-30 05:27N 01°14' E 103°49'0 0.1
2015-Apr-30 04:33N 01°14' E 103°49'0 0.0
2015-Apr-30 03:30N 01°14' E 103°49'0 0.0
2015-Apr-30 01:13N 01°14' E 103°49'0 0.0
2015-Apr-29 21:21N 01°14' E 103°49'0 0.2
2015-Apr-29 20:24N 01°14' E 103°48'0 0.1
2015-Apr-29 19:30N 01°14' E 103°49'0 0.0
2015-Apr-29 18:27N 01°14' E 103°49'0 0.0
2015-Apr-29 17:33N 01°14' E 103°49'  
Track history (hours):
 
Tides and Currents Weather Stations Pressure Air Temp Water Temp Dewpoint Dewpoint Depression Visibility Wind Speed Wind Dir Waves Ship Positions

Nord Imagination

Last reported at 2015-May-09 17:33 UTC. Time now 2015-May-25 05:34 UTC.
Position N 01°15' E 104°01'.
Warning: this ship's position is 15 days out of date.

Length 179 m; draft 11 m.

Type: Ship (hazmat cat B). MMSI: 354828000.

Date/timePositionNaut miles runAvg speedWind from/ knotsBaromVisibWave heightAir tempDewpointWater temp
2015-May-09 17:33N 01°15' E 104°01'1211.9
2015-May-09 16:33N 01°11' E 103°50'2 1.9
2015-May-09 15:33N 01°13' E 103°49'5 5.1
2015-May-09 14:33N 01°15' E 103°44'  
2015-May-07 06:30N 01°14' E 103°48'0 0.1
2015-May-07 05:30N 01°14' E 103°48'0 0.1
2015-May-07 04:30N 01°14' E 103°48'0 0.1
2015-May-07 03:30N 01°14' E 103°48'0 0.0
2015-May-07 02:06N 01°14' E 103°48'0 0.1
2015-May-07 01:31N 01°14' E 103°48'0 0.1
2015-May-07 00:33N 01°14' E 103°48'0 0.0
2015-May-06 23:30N 01°14' E 103°48'0 0.0
2015-May-06 22:30N 01°14' E 103°48'0 0.0
2015-May-06 21:30N 01°14' E 103°48'0 0.0
2015-May-06 20:33N 01°14' E 103°48'0 0.1
2015-May-06 19:30N 01°14' E 103°48'0 0.1
2015-May-06 18:24N 01°14' E 103°48'0 0.1
2015-May-06 17:12N 01°14' E 103°48'0 0.1
2015-May-06 16:33N 01°14' E 103°48'0 0.1
2015-May-06 15:30N 01°14' E 103°48'0 0.0
2015-May-06 14:30N 01°14' E 103°48'0 0.0
2015-May-06 13:30N 01°14' E 103°48'0 0.0
2015-May-06 12:24N 01°14' E 103°48'0 0.0
2015-May-06 11:30N 01°14' E 103°48'1 1.1
2015-May-06 10:33N 01°15' E 103°47'8 7.8
2015-May-06 09:33N 01°15' E 103°39'4 0.1
2015-May-04 19:29N 01°18' E 103°42'5 2.4
2015-May-04 17:33N 01°16' E 103°46'3 1.9
2015-May-04 16:03N 01°14' E 103°49'0 0.0
2015-May-04 15:30N 01°14' E 103°49'0 0.0
2015-May-04 12:33N 01°14' E 103°48'0 0.0
2015-May-04 11:18N 01°14' E 103°48'0 0.0
2015-May-04 10:30N 01°14' E 103°48'0 0.1
2015-May-04 09:27N 01°14' E 103°48'0 0.1
2015-May-04 07:27N 01°14' E 103°49'0 0.0
2015-May-04 06:03N 01°14' E 103°49'0 0.0
2015-May-04 05:24N 01°14' E 103°49'0 0.1
2015-May-04 03:30N 01°14' E 103°48'0 0.0
2015-May-04 02:33N 01°14' E 103°48'0 0.0
2015-May-04 01:24N 01°14' E 103°48'0 0.1
2015-May-03 23:24N 01°14' E 103°49'0 0.0
2015-May-03 22:12N 01°14' E 103°49'0 0.0
2015-May-03 21:30N 01°14' E 103°49'0 0.0
2015-May-03 20:30N 01°14' E 103°49'0 0.0
2015-May-03 19:33N 01°14' E 103°49'0 0.0
2015-May-03 18:24N 01°14' E 103°49'0 0.0
2015-May-03 17:33N 01°14' E 103°49'0 0.0
2015-May-03 15:03N 01°14' E 103°49'0 0.0
2015-May-03 12:30N 01°14' E 103°48'0 0.1
2015-May-03 11:30N 01°14' E 103°48'0 0.0
2015-May-03 10:30N 01°14' E 103°48'0 0.1
2015-May-03 09:27N 01°14' E 103°48'0 0.0
2015-May-03 06:25N 01°14' E 103°49'0 0.0
2015-May-03 03:27N 01°14' E 103°48'0 0.0
2015-May-03 01:20N 01°14' E 103°48'0 0.1
2015-May-03 00:24N 01°14' E 103°49'0 0.1
2015-May-02 23:21N 01°14' E 103°49'0 0.0
2015-May-02 22:24N 01°14' E 103°49'0 0.0
2015-May-02 21:30N 01°14' E 103°49'0 0.0
2015-May-02 20:06N 01°14' E 103°49'0 0.0
2015-May-02 19:30N 01°14' E 103°49'0 0.0
2015-May-02 18:24N 01°14' E 103°49'0 0.0
2015-May-02 16:30N 01°14' E 103°49'0 0.0
2015-May-02 15:30N 01°14' E 103°49'0 0.0
2015-May-02 14:03N 01°14' E 103°49'0 0.1
2015-May-02 12:21N 01°14' E 103°48'0 0.0
2015-May-02 11:30N 01°14' E 103°48'0 0.0
2015-May-02 10:07N 01°14' E 103°48'0 0.3
2015-May-02 09:24N 01°14' E 103°49'0 0.0
2015-May-02 07:30N 01°14' E 103°49'0 0.0
2015-May-02 06:21N 01°14' E 103°49'0 0.0
2015-May-02 02:27N 01°14' E 103°48'0 0.1
2015-May-02 01:30N 01°14' E 103°48'0 0.0
2015-May-02 00:30N 01°14' E 103°48'0 0.1
2015-May-01 22:24N 01°14' E 103°49'0 0.0
2015-May-01 21:27N 01°14' E 103°49'0 0.0
2015-May-01 20:30N 01°14' E 103°49'0 0.0
2015-May-01 18:24N 01°14' E 103°49'0 0.0
2015-May-01 17:06N 01°14' E 103°49'0 0.0
2015-May-01 16:24N 01°14' E 103°49'0 0.0
2015-May-01 11:24N 01°14' E 103°48'0 0.1
2015-May-01 10:30N 01°14' E 103°48'0 0.1
2015-May-01 07:12N 01°14' E 103°49'0 0.0
2015-May-01 06:24N 01°14' E 103°49'0 0.0
2015-May-01 05:24N 01°14' E 103°49'0 0.0
2015-May-01 04:30N 01°14' E 103°49'0 0.0
2015-May-01 03:24N 01°14' E 103°49'0 0.1
2015-May-01 02:15N 01°14' E 103°49'0 0.1
2015-May-01 01:18N 01°14' E 103°48'0 0.0
2015-May-01 00:24N 01°14' E 103°48'0 0.0
2015-Apr-30 23:24N 01°14' E 103°48'0 0.0
2015-Apr-30 22:24N 01°14' E 103°48'0 0.1
2015-Apr-30 21:09N 01°14' E 103°48'0 0.1
2015-Apr-30 20:15N 01°14' E 103°49'0 0.0
2015-Apr-30 19:30N 01°14' E 103°49'0 0.0
2015-Apr-30 18:33N 01°14' E 103°49'0 0.1
2015-Apr-30 17:30N 01°14' E 103°49'0 0.1
2015-Apr-30 16:18N 01°14' E 103°49'0 0.0
2015-Apr-30 15:30N 01°14' E 103°49'0 0.2
2015-Apr-30 14:27N 01°14' E 103°48'0 0.1
2015-Apr-30 13:33N 01°14' E 103°48'0 0.1
2015-Apr-30 12:30N 01°14' E 103°48'0 0.0
2015-Apr-30 11:24N 01°14' E 103°48'0 0.0
2015-Apr-30 10:30N 01°14' E 103°48'0 0.1
2015-Apr-30 09:30N 01°14' E 103°48'0 0.1
2015-Apr-30 08:24N 01°14' E 103°49'0 0.1
2015-Apr-30 07:30N 01°14' E 103°49'0 0.0
2015-Apr-30 06:24N 01°14' E 103°49'0 0.0
2015-Apr-30 05:27N 01°14' E 103°49'0 0.1
2015-Apr-30 04:33N 01°14' E 103°49'0 0.0
2015-Apr-30 03:30N 01°14' E 103°49'0 0.0
2015-Apr-30 01:13N 01°14' E 103°49'0 0.0
2015-Apr-29 21:21N 01°14' E 103°49'0 0.2
2015-Apr-29 20:24N 01°14' E 103°48'0 0.1
2015-Apr-29 19:30N 01°14' E 103°49'0 0.0
2015-Apr-29 18:27N 01°14' E 103°49'0 0.0
2015-Apr-29 17:33N 01°14' E 103°49'  

Dump ship's entire track history